Time;durP1;ratioP1;P1;durP2;ratioP2;P2;SDS_P1;SDS_P2;PMS_P1;PMS_P2;Temp;Humidity;BMP_temperature;BMP_pressure;BME280_temperature;BME280_humidity;BME280_pressure;Samples;Min_cycle;Max_cycle;Signal;HPM_P1;HPM_P2
2021/12/20 00:00:55;;;;;;;9.97;5.37;;;7.40;99.90;;;;;;5012758;28;20181;-83
2021/12/20 00:03:21;;;;;;;10.27;5.97;;;7.50;99.90;;;;;;5011954;28;20502;-83
2021/12/20 00:05:47;;;;;;;8.43;5.60;;;7.50;99.90;;;;;;5013229;28;20891;-83
2021/12/20 00:08:12;;;;;;;11.80;6.63;;;7.50;99.90;;;;;;5013247;28;20507;-83
2021/12/20 00:10:38;;;;;;;8.33;5.43;;;7.50;99.90;;;;;;5012903;28;20173;-83
2021/12/20 00:13:04;;;;;;;11.43;5.73;;;7.60;99.90;;;;;;5014489;28;20185;-83
2021/12/20 00:15:29;;;;;;;12.77;6.90;;;7.50;99.90;;;;;;5017411;28;20197;-83
2021/12/20 00:17:55;;;;;;;9.50;6.10;;;7.50;99.90;;;;;;5017355;28;20196;-84
2021/12/20 00:20:21;;;;;;;11.83;5.73;;;7.40;99.90;;;;;;5017419;28;20222;-83
2021/12/20 00:22:47;;;;;;;10.10;6.20;;;7.40;99.90;;;;;;5017226;28;20201;-83
2021/12/20 00:25:13;;;;;;;10.03;5.43;;;7.30;99.90;;;;;;5017273;28;20481;-83
2021/12/20 00:27:38;;;;;;;9.83;5.17;;;7.30;99.90;;;;;;5015391;28;20189;-83
2021/12/20 00:30:09;;;;;;;7.93;4.83;;;7.30;99.90;;;;;;5015242;28;20556;-83
2021/12/20 00:32:34;;;;;;;8.43;5.60;;;7.20;99.90;;;;;;5016914;28;20204;-83
2021/12/20 00:35:00;;;;;;;8.33;4.77;;;7.20;99.90;;;;;;5016664;28;20422;-83
2021/12/20 00:40:20;;;;;;;10.27;5.90;;;7.20;99.90;;;;;;5016255;28;20487;-83
2021/12/20 00:42:57;;;;;;;7.90;4.93;;;7.30;99.90;;;;;;5016471;28;20447;-83
2021/12/20 00:45:25;;;;;;;9.13;5.57;;;7.30;99.90;;;;;;5016891;28;20404;-83
2021/12/20 00:47:51;;;;;;;7.53;4.20;;;7.40;99.90;;;;;;5016306;28;20427;-83
2021/12/20 00:50:19;;;;;;;10.43;4.67;;;7.40;99.90;;;;;;5015940;28;20412;-83
2021/12/20 00:52:45;;;;;;;8.77;4.50;;;7.40;99.90;;;;;;5014473;28;20444;-83
2021/12/20 00:55:15;;;;;;;8.07;4.70;;;7.30;99.90;;;;;;5014630;28;20427;-84
2021/12/20 00:57:43;;;;;;;6.67;4.60;;;7.40;99.90;;;;;;5016058;28;20411;-83
2021/12/20 01:00:10;;;;;;;9.27;5.13;;;7.40;99.90;;;;;;5014971;28;20977;-83
2021/12/20 01:02:36;;;;;;;8.70;4.90;;;7.40;99.90;;;;;;5015773;28;20493;-83
2021/12/20 01:05:03;;;;;;;7.70;4.80;;;7.30;99.90;;;;;;5013530;28;20427;-83
2021/12/20 01:07:29;;;;;;;6.67;5.30;;;7.30;99.90;;;;;;5014314;28;20224;-83
2021/12/20 01:09:58;;;;;;;8.77;4.87;;;7.30;99.90;;;;;;5013825;28;20522;-83
2021/12/20 01:12:28;;;;;;;8.87;4.77;;;7.40;99.90;;;;;;5013420;28;20508;-83
2021/12/20 01:14:59;;;;;;;7.20;4.30;;;7.50;99.90;;;;;;5015480;28;20408;-83
2021/12/20 01:17:24;;;;;;;7.93;4.10;;;7.50;99.90;;;;;;5013582;28;20432;-83
2021/12/20 01:19:50;;;;;;;7.00;4.30;;;7.50;99.90;;;;;;5013389;28;20913;-83
2021/12/20 01:22:16;;;;;;;7.67;4.67;;;7.40;99.90;;;;;;5013230;28;20205;-83
2021/12/20 01:24:42;;;;;;;6.80;4.60;;;7.40;99.90;;;;;;5014542;28;20506;-83
2021/12/20 01:27:08;;;;;;;7.40;4.60;;;7.50;99.90;;;;;;5013045;28;20427;-83
2021/12/20 01:29:33;;;;;;;7.50;4.57;;;7.50;99.90;;;;;;5014536;28;20189;-83
2021/12/20 01:31:59;;;;;;;6.57;3.90;;;7.50;99.90;;;;;;5013117;28;20232;-83
2021/12/20 01:34:24;;;;;;;5.73;3.77;;;7.50;99.90;;;;;;5014556;28;20602;-83
2021/12/20 01:36:50;;;;;;;9.43;5.10;;;7.50;99.90;;;;;;5014502;28;20197;-83
2021/12/20 01:39:16;;;;;;;6.33;3.47;;;7.50;99.90;;;;;;5012675;28;20239;-83
2021/12/20 01:41:44;;;;;;;6.60;4.00;;;7.40;99.90;;;;;;5044229;22;20289;-81
2021/12/20 01:44:12;;;;;;;10.83;4.50;;;7.30;99.90;;;;;;5003887;28;20192;-82
2021/12/20 01:46:37;;;;;;;7.50;3.53;;;7.30;99.90;;;;;;4996100;28;20412;-81
2021/12/20 01:49:07;;;;;;;7.30;3.53;;;7.20;99.90;;;;;;4995799;28;20498;-81
2021/12/20 01:54:02;;;;;;;7.00;2.93;;;7.30;99.90;;;;;;5013781;28;20436;-81
2021/12/20 01:56:35;;;;;;;7.90;3.50;;;7.40;99.90;;;;;;4996286;28;20474;-82
2021/12/20 01:59:06;;;;;;;7.73;3.57;;;7.40;99.90;;;;;;4995507;28;20451;-81
2021/12/20 02:01:32;;;;;;;9.57;3.70;;;7.50;99.90;;;;;;4996039;28;20966;-82
2021/12/20 02:04:01;;;;;;;6.17;2.97;;;7.50;99.90;;;;;;4996182;28;20419;-81
2021/12/20 02:06:39;;;;;;;5.60;3.63;;;7.50;99.90;;;;;;4995752;28;20423;-81
2021/12/20 02:09:14;;;;;;;7.23;3.50;;;7.60;99.90;;;;;;4995506;28;20455;-81
2021/12/20 02:11:42;;;;;;;6.03;4.07;;;7.60;99.90;;;;;;4995210;28;20450;-82
2021/12/20 02:14:09;;;;;;;8.87;3.60;;;7.50;99.90;;;;;;4995535;28;20428;-82
2021/12/20 02:16:36;;;;;;;5.30;2.90;;;7.50;99.90;;;;;;4995795;28;20835;-81
2021/12/20 02:19:14;;;;;;;6.67;2.90;;;7.50;99.90;;;;;;4999637;28;20423;-81
2021/12/20 02:21:44;;;;;;;9.53;3.47;;;7.50;99.90;;;;;;4999681;28;20451;-82
2021/12/20 02:24:10;;;;;;;7.83;3.67;;;7.60;99.90;;;;;;4999063;28;20438;-82
2021/12/20 02:26:36;;;;;;;5.40;3.20;;;7.60;99.90;;;;;;4999403;28;20419;-82
2021/12/20 02:29:06;;;;;;;8.63;3.90;;;7.60;99.90;;;;;;4998708;28;20423;-81
2021/12/20 02:37:18;;;;;;;6.53;3.53;;;7.40;99.90;;;;;;5017172;28;20478;-82
2021/12/20 02:39:45;;;;;;;7.40;3.73;;;7.40;99.90;;;;;;4999284;28;20514;-82
2021/12/20 02:42:16;;;;;;;8.93;4.10;;;7.40;99.90;;;;;;4999314;28;20456;-81
2021/12/20 02:44:46;;;;;;;5.57;3.30;;;7.50;99.90;;;;;;4998994;28;20443;-81
2021/12/20 02:47:16;;;;;;;12.83;3.60;;;7.40;99.90;;;;;;5008516;28;20993;-83
2021/12/20 02:49:43;;;;;;;7.80;3.63;;;7.40;99.90;;;;;;5011592;28;20430;-83
2021/12/20 02:52:09;;;;;;;5.37;3.40;;;7.30;99.90;;;;;;5010497;28;20443;-83
2021/12/20 02:54:36;;;;;;;10.73;4.30;;;7.30;99.90;;;;;;5010513;28;20424;-83
2021/12/20 02:57:03;;;;;;;4.30;2.73;;;7.20;99.90;;;;;;5009485;28;20490;-83
2021/12/20 02:59:29;;;;;;;9.23;3.17;;;7.40;99.90;;;;;;5008812;28;20424;-82
2021/12/20 03:02:13;;;;;;;10.43;3.20;;;7.40;99.90;;;;;;5008214;28;20444;-83
2021/12/20 03:04:39;;;;;;;8.77;4.07;;;7.50;99.90;;;;;;5008501;28;20563;-83
2021/12/20 03:07:11;;;;;;;5.00;3.20;;;7.40;99.90;;;;;;5008050;28;20795;-82
2021/12/20 03:09:41;;;;;;;5.73;3.00;;;7.40;99.90;;;;;;5007136;28;20931;-82
2021/12/20 03:12:09;;;;;;;5.93;3.13;;;7.30;99.90;;;;;;5007333;28;20443;-83
2021/12/20 03:14:44;;;;;;;6.47;2.90;;;7.20;99.90;;;;;;5005543;28;20834;-81
2021/12/20 03:17:11;;;;;;;7.70;3.20;;;7.30;99.90;;;;;;5006180;28;20459;-83
2021/12/20 03:19:37;;;;;;;4.60;2.90;;;7.10;99.90;;;;;;5005351;28;20440;-82
2021/12/20 03:22:04;;;;;;;9.00;3.20;;;7.00;99.90;;;;;;5004546;28;20437;-83
2021/12/20 03:24:30;;;;;;;6.63;3.00;;;7.00;99.90;;;;;;5004605;28;20842;-82
2021/12/20 03:26:55;;;;;;;7.87;2.87;;;7.00;99.90;;;;;;5004197;28;20420;-83
2021/12/20 03:29:21;;;;;;;10.80;3.20;;;7.10;99.90;;;;;;5002043;28;20416;-81
2021/12/20 03:31:47;;;;;;;7.27;3.37;;;7.00;99.90;;;;;;5003066;28;20208;-84
2021/12/20 03:34:15;;;;;;;6.23;2.73;;;7.10;99.90;;;;;;5003114;28;20420;-81
2021/12/20 03:36:41;;;;;;;10.43;3.40;;;7.10;99.90;;;;;;5002496;28;20464;-82
2021/12/20 03:39:08;;;;;;;10.53;4.17;;;7.30;99.90;;;;;;5002701;28;20451;-81
2021/12/20 03:41:35;;;;;;;7.20;3.80;;;7.30;99.90;;;;;;5002096;28;20181;-82
2021/12/20 03:44:01;;;;;;;7.07;4.20;;;7.30;99.90;;;;;;5002068;28;20428;-82
2021/12/20 03:46:27;;;;;;;7.30;3.17;;;7.20;99.90;;;;;;5001935;28;20482;-82
2021/12/20 03:48:53;;;;;;;13.00;3.20;;;7.20;99.90;;;;;;5002756;28;20423;-83
2021/12/20 03:51:19;;;;;;;9.23;3.43;;;7.10;99.90;;;;;;5001359;28;20511;-81
2021/12/20 03:53:45;;;;;;;7.10;3.30;;;7.20;99.90;;;;;;5001804;28;20201;-81
2021/12/20 03:56:11;;;;;;;7.53;3.33;;;7.30;99.90;;;;;;5000694;28;20212;-82
2021/12/20 03:58:37;;;;;;;8.10;3.30;;;7.40;99.90;;;;;;4999644;28;20427;-81
2021/12/20 04:01:10;;;;;;;9.87;3.80;;;7.50;99.90;;;;;;4999226;28;20942;-81
2021/12/20 04:03:36;;;;;;;7.43;3.10;;;7.50;99.90;;;;;;4999784;28;20784;-82
2021/12/20 04:06:06;;;;;;;7.47;3.77;;;7.60;99.90;;;;;;4999478;28;20428;-82
2021/12/20 04:08:32;;;;;;;6.73;2.93;;;7.60;99.90;;;;;;4999966;28;20482;-81
2021/12/20 04:10:58;;;;;;;6.67;3.20;;;7.60;99.90;;;;;;4999920;28;20478;-81
2021/12/20 04:13:26;;;;;;;8.73;3.50;;;7.70;99.90;;;;;;4999347;28;20853;-82
2021/12/20 04:15:53;;;;;;;7.60;3.57;;;7.60;99.90;;;;;;4999067;28;20542;-81
2021/12/20 04:18:19;;;;;;;6.43;3.40;;;7.60;99.90;;;;;;4999277;28;20427;-81
2021/12/20 04:20:45;;;;;;;7.40;3.40;;;7.50;99.90;;;;;;4998572;28;20420;-83
2021/12/20 04:23:11;;;;;;;5.53;2.90;;;7.60;99.90;;;;;;4997692;28;20965;-82
2021/12/20 04:25:37;;;;;;;6.97;3.40;;;7.60;99.90;;;;;;4998355;28;20652;-82
2021/12/20 04:28:03;;;;;;;9.97;3.27;;;7.50;99.90;;;;;;4997791;28;20426;-81
2021/12/20 04:30:30;;;;;;;10.80;3.50;;;7.60;99.90;;;;;;4997955;28;20231;-81
2021/12/20 04:32:56;;;;;;;6.00;3.17;;;7.60;99.90;;;;;;4998248;28;20482;-81
2021/12/20 04:35:22;;;;;;;11.50;3.80;;;7.60;99.90;;;;;;4997546;28;20464;-82
2021/12/20 04:37:49;;;;;;;11.80;3.67;;;7.60;99.90;;;;;;4998265;28;20185;-81
2021/12/20 04:40:19;;;;;;;9.70;3.57;;;7.70;99.90;;;;;;4996596;28;20419;-81
2021/12/20 04:42:51;;;;;;;6.73;3.63;;;7.70;99.90;;;;;;4998230;28;20455;-81
2021/12/20 04:45:17;;;;;;;7.83;3.13;;;7.70;99.90;;;;;;4997818;28;20464;-81
2021/12/20 04:47:43;;;;;;;7.03;3.33;;;7.70;99.90;;;;;;4997975;28;20451;-81
2021/12/20 04:50:13;;;;;;;10.50;3.80;;;7.70;99.90;;;;;;4996472;28;20430;-81
2021/12/20 04:52:41;;;;;;;11.37;4.00;;;7.70;99.90;;;;;;4997064;28;20488;-81
2021/12/20 04:55:07;;;;;;;13.57;3.80;;;7.70;99.90;;;;;;4997774;28;20790;-81
2021/12/20 04:57:33;;;;;;;9.93;3.10;;;7.60;99.90;;;;;;4997133;28;20419;-82
2021/12/20 04:59:59;;;;;;;12.97;3.73;;;7.70;99.90;;;;;;4996586;28;20412;-82
2021/12/20 05:02:25;;;;;;;12.10;3.90;;;7.70;99.90;;;;;;4996897;28;20246;-82
2021/12/20 05:04:51;;;;;;;7.50;4.23;;;7.70;99.90;;;;;;4996850;28;20185;-81
2021/12/20 05:07:17;;;;;;;9.77;4.70;;;7.70;99.90;;;;;;4996163;28;20786;-81
2021/12/20 05:09:43;;;;;;;10.20;5.30;;;7.70;99.90;;;;;;4996390;28;20184;-81
2021/12/20 05:12:14;;;;;;;11.13;4.23;;;7.70;99.90;;;;;;4995810;28;20442;-82
2021/12/20 05:14:42;;;;;;;8.97;4.13;;;7.70;99.90;;;;;;4996333;28;20420;-82
2021/12/20 05:17:10;;;;;;;7.30;5.10;;;7.70;99.90;;;;;;4996554;28;20495;-81
2021/12/20 05:19:36;;;;;;;9.87;4.97;;;7.70;99.90;;;;;;4996265;28;20420;-81
2021/12/20 05:22:03;;;;;;;11.03;4.77;;;7.70;99.90;;;;;;4995781;28;20811;-82
2021/12/20 05:24:28;;;;;;;9.43;4.10;;;7.70;99.90;;;;;;4996213;28;20547;-81
2021/12/20 05:26:54;;;;;;;9.80;3.83;;;7.70;99.90;;;;;;4995861;28;20424;-81
2021/12/20 05:29:20;;;;;;;9.20;3.03;;;7.70;99.90;;;;;;4995968;28;20212;-81
2021/12/20 05:31:47;;;;;;;9.87;3.43;;;7.60;99.90;;;;;;4995355;28;20682;-81
2021/12/20 05:34:12;;;;;;;10.17;3.20;;;7.60;99.90;;;;;;4996215;28;20473;-81
2021/12/20 05:36:38;;;;;;;7.27;3.67;;;7.60;99.90;;;;;;4996502;28;20978;-81
2021/12/20 05:39:04;;;;;;;9.80;3.63;;;7.60;99.90;;;;;;4996381;28;20191;-81
2021/12/20 05:41:30;;;;;;;7.40;3.37;;;7.60;99.90;;;;;;5001710;28;20181;-83
2021/12/20 05:43:56;;;;;;;12.90;3.43;;;7.60;99.90;;;;;;5009072;28;20430;-82
2021/12/20 05:46:22;;;;;;;7.47;2.63;;;7.60;99.90;;;;;;5007550;28;20478;-83
2021/12/20 05:48:48;;;;;;;7.23;3.20;;;7.60;99.90;;;;;;5006617;28;20282;-82
2021/12/20 05:51:14;;;;;;;14.73;3.10;;;7.60;99.90;;;;;;5006155;28;20196;-82
2021/12/20 05:53:39;;;;;;;6.73;2.43;;;7.50;99.90;;;;;;5008146;28;20235;-83
2021/12/20 05:56:05;;;;;;;8.13;3.87;;;7.50;99.90;;;;;;5009974;28;20471;-83
2021/12/20 05:58:31;;;;;;;6.17;2.90;;;7.50;99.90;;;;;;5008760;28;20185;-82
2021/12/20 06:00:57;;;;;;;7.87;2.83;;;7.50;99.90;;;;;;5007927;28;20177;-82
2021/12/20 06:03:23;;;;;;;11.40;2.90;;;7.60;99.90;;;;;;5007086;28;20621;-82
2021/12/20 06:05:49;;;;;;;5.73;2.60;;;7.50;99.90;;;;;;5007515;28;20850;-83
2021/12/20 06:08:14;;;;;;;7.33;3.17;;;7.60;99.90;;;;;;5006990;28;20499;-82
2021/12/20 06:10:40;;;;;;;5.60;3.77;;;7.40;99.90;;;;;;5004372;28;20250;-82
2021/12/20 06:13:06;;;;;;;13.47;3.40;;;7.50;99.90;;;;;;4999563;28;20223;-82
2021/12/20 06:15:32;;;;;;;11.83;3.80;;;7.50;99.90;;;;;;4998890;28;20258;-81
2021/12/20 06:17:58;;;;;;;6.10;2.73;;;7.50;99.90;;;;;;4998893;28;20423;-82
2021/12/20 06:20:26;;;;;;;7.43;3.73;;;7.50;99.90;;;;;;4998793;28;20848;-82
2021/12/20 06:22:52;;;;;;;11.63;3.50;;;7.50;99.90;;;;;;4998882;28;20486;-81
2021/12/20 06:25:19;;;;;;;6.37;3.47;;;7.50;99.90;;;;;;4998361;28;20427;-81
2021/12/20 06:27:47;;;;;;;8.90;3.40;;;7.50;99.90;;;;;;4998876;28;20424;-81
2021/12/20 06:30:14;;;;;;;7.77;3.60;;;7.50;99.90;;;;;;4998284;28;20707;-82
2021/12/20 06:32:42;;;;;;;7.27;3.20;;;7.40;99.90;;;;;;4998250;28;20450;-81
2021/12/20 06:35:09;;;;;;;9.00;2.80;;;7.50;99.90;;;;;;4998726;28;20930;-81
2021/12/20 06:37:35;;;;;;;8.47;3.47;;;7.50;99.90;;;;;;4999144;28;20416;-82
2021/12/20 06:40:02;;;;;;;9.93;3.70;;;7.50;99.90;;;;;;4998527;28;20470;-82
2021/12/20 06:42:29;;;;;;;13.37;3.60;;;7.50;99.90;;;;;;4998603;28;20459;-81
2021/12/20 06:44:55;;;;;;;6.70;2.50;;;7.40;99.90;;;;;;4998864;28;20420;-81
2021/12/20 06:47:22;;;;;;;8.13;3.40;;;7.40;99.90;;;;;;4998553;28;21005;-81
2021/12/20 06:49:48;;;;;;;7.97;3.43;;;7.40;99.90;;;;;;4998470;28;20683;-81
2021/12/20 06:52:14;;;;;;;15.83;3.57;;;7.40;99.90;;;;;;4997837;28;20902;-82
2021/12/20 06:54:40;;;;;;;7.73;3.17;;;7.40;99.90;;;;;;4998050;28;20427;-81
2021/12/20 06:57:06;;;;;;;6.17;2.67;;;7.40;99.90;;;;;;4998543;28;20459;-81
2021/12/20 06:59:32;;;;;;;9.60;4.03;;;7.40;99.90;;;;;;4998812;28;20696;-82
2021/12/20 07:01:58;;;;;;;8.90;3.37;;;7.40;99.90;;;;;;4998339;28;20235;-81
2021/12/20 07:04:24;;;;;;;9.07;3.40;;;7.40;99.90;;;;;;4998728;28;20935;-81
2021/12/20 07:06:50;;;;;;;7.50;2.30;;;7.40;99.90;;;;;;4998541;28;20479;-81
2021/12/20 07:09:16;;;;;;;11.07;3.07;;;7.40;99.90;;;;;;4998498;28;20185;-81
2021/12/20 07:11:43;;;;;;;9.10;3.47;;;7.40;99.90;;;;;;4998226;28;20605;-82
2021/12/20 07:14:10;;;;;;;12.23;3.97;;;7.40;99.90;;;;;;4998560;28;20420;-82
2021/12/20 07:16:36;;;;;;;12.53;4.03;;;7.40;99.90;;;;;;4998398;28;20459;-81
2021/12/20 07:19:05;;;;;;;6.90;2.73;;;7.40;99.90;;;;;;4998012;28;20435;-82
2021/12/20 07:21:31;;;;;;;6.57;2.83;;;7.40;99.90;;;;;;4998215;28;20440;-81
2021/12/20 07:23:56;;;;;;;8.13;2.97;;;7.40;99.90;;;;;;4998447;28;20409;-81
2021/12/20 07:26:22;;;;;;;10.10;2.67;;;7.40;99.90;;;;;;4999059;28;20488;-81
2021/12/20 07:28:48;;;;;;;9.03;2.97;;;7.40;99.90;;;;;;4998898;28;20717;-80
2021/12/20 07:31:15;;;;;;;5.37;3.50;;;7.40;99.90;;;;;;5002126;28;20436;-81
2021/12/20 07:33:42;;;;;;;6.90;3.33;;;7.40;99.90;;;;;;5002216;28;20204;-82
2021/12/20 07:36:09;;;;;;;11.40;2.90;;;7.40;99.90;;;;;;5000977;28;20470;-80
2021/12/20 07:38:35;;;;;;;8.10;2.93;;;7.30;99.90;;;;;;4998720;28;20470;-82
2021/12/20 07:41:02;;;;;;;7.77;2.80;;;7.30;99.90;;;;;;4998848;28;20533;-80
2021/12/20 07:43:28;;;;;;;6.30;2.60;;;7.40;99.90;;;;;;5018355;22;20498;-83
2021/12/20 07:45:53;;;;;;;10.90;2.67;;;7.30;99.90;;;;;;4976090;28;20521;-83
2021/12/20 07:48:21;;;;;;;9.23;3.20;;;7.30;99.90;;;;;;4974930;28;20185;-83
2021/12/20 07:50:47;;;;;;;9.10;3.17;;;7.30;99.90;;;;;;4972819;28;20240;-83
2021/12/20 07:53:14;;;;;;;8.20;2.93;;;7.20;99.90;;;;;;4974566;28;20845;-83
2021/12/20 07:55:39;;;;;;;8.37;3.20;;;7.20;99.90;;;;;;4974298;28;20895;-83
2021/12/20 07:58:06;;;;;;;10.07;3.00;;;7.20;99.90;;;;;;4974345;28;20457;-83
2021/12/20 08:00:32;;;;;;;8.23;3.00;;;7.20;99.90;;;;;;4972821;28;20278;-83
2021/12/20 08:02:58;;;;;;;11.53;3.17;;;7.20;99.90;;;;;;4957005;28;20427;-83
2021/12/20 08:05:25;;;;;;;11.67;2.80;;;7.10;99.90;;;;;;4956558;28;21120;-83
2021/12/20 08:07:51;;;;;;;7.33;2.87;;;7.10;99.90;;;;;;4956914;28;20417;-83
2021/12/20 08:10:23;;;;;;;11.37;3.27;;;7.10;99.90;;;;;;4956504;28;20442;-83
2021/12/20 08:12:50;;;;;;;5.00;2.30;;;7.10;99.90;;;;;;4957372;28;20183;-83
2021/12/20 08:15:17;;;;;;;7.57;2.90;;;7.00;99.90;;;;;;4973767;28;20497;-83
2021/12/20 08:17:42;;;;;;;8.23;3.50;;;6.90;99.90;;;;;;4974361;28;20416;-83
2021/12/20 08:20:09;;;;;;;7.87;2.87;;;6.80;99.90;;;;;;4956974;28;20512;-83
2021/12/20 08:22:35;;;;;;;6.70;3.50;;;6.80;99.90;;;;;;4956731;28;20324;-83
2021/12/20 08:25:01;;;;;;;6.80;2.83;;;6.70;99.90;;;;;;4956782;28;20467;-83
2021/12/20 08:27:27;;;;;;;9.00;3.10;;;6.70;99.90;;;;;;4973972;28;20413;-83
2021/12/20 08:29:53;;;;;;;8.03;3.33;;;6.60;99.90;;;;;;4956543;28;20477;-83
2021/12/20 08:32:18;;;;;;;11.03;3.47;;;6.50;99.90;;;;;;4974152;28;20429;-82
2021/12/20 08:34:44;;;;;;;13.33;4.00;;;6.40;99.90;;;;;;4956624;28;20204;-83
2021/12/20 08:37:10;;;;;;;8.50;3.37;;;6.40;99.90;;;;;;4973985;28;20735;-82
2021/12/20 08:39:35;;;;;;;7.30;3.03;;;6.30;99.90;;;;;;4973891;28;20223;-83
2021/12/20 08:42:05;;;;;;;5.60;3.10;;;6.30;99.90;;;;;;4973640;28;20182;-83
2021/12/20 08:44:31;;;;;;;9.73;3.33;;;6.20;99.90;;;;;;4956281;28;20218;-83
2021/12/20 08:46:58;;;;;;;6.77;3.17;;;6.20;99.90;;;;;;4956397;28;20881;-82
2021/12/20 08:49:24;;;;;;;9.70;4.60;;;6.10;99.90;;;;;;4973618;28;20421;-83
2021/12/20 08:51:50;;;;;;;14.90;3.77;;;6.10;99.90;;;;;;4973637;28;20460;-83
2021/12/20 08:54:16;;;;;;;11.80;3.60;;;6.10;99.90;;;;;;4956249;28;20928;-83
2021/12/20 08:56:42;;;;;;;10.50;3.77;;;6.10;99.90;;;;;;4956149;28;20210;-83
2021/12/20 08:59:09;;;;;;;10.43;3.40;;;6.10;99.90;;;;;;4956290;28;20841;-83
2021/12/20 09:01:35;;;;;;;14.67;3.83;;;6.10;99.90;;;;;;4955995;28;20432;-83
2021/12/20 09:04:03;;;;;;;10.53;3.70;;;6.20;99.90;;;;;;4955927;28;20445;-83
2021/12/20 09:06:28;;;;;;;8.90;3.87;;;6.30;99.90;;;;;;4956081;28;20436;-83
2021/12/20 09:08:55;;;;;;;27.33;5.33;;;6.30;99.90;;;;;;4953568;28;20426;-80
2021/12/20 09:11:26;;;;;;;9.30;3.70;;;6.40;99.90;;;;;;4991946;28;20185;-80
2021/12/20 09:13:52;;;;;;;12.90;4.87;;;6.40;99.90;;;;;;4992487;28;20441;-80
2021/12/20 09:16:18;;;;;;;11.10;5.73;;;6.50;99.90;;;;;;4992322;28;20456;-80
2021/12/20 09:18:43;;;;;;;8.20;4.00;;;6.60;99.90;;;;;;4991249;28;20964;-80
2021/12/20 09:21:10;;;;;;;13.03;4.33;;;6.60;99.90;;;;;;4992066;28;20173;-80
2021/12/20 09:23:37;;;;;;;17.70;4.93;;;6.70;99.90;;;;;;4992072;28;20190;-80
2021/12/20 09:26:03;;;;;;;10.20;4.60;;;6.80;99.90;;;;;;4992189;28;20425;-80
2021/12/20 09:28:29;;;;;;;15.60;4.80;;;6.80;99.90;;;;;;4995434;28;20416;-80
2021/12/20 09:30:54;;;;;;;11.80;4.10;;;6.90;99.90;;;;;;4996003;28;20463;-80
2021/12/20 09:33:20;;;;;;;9.63;4.40;;;7.00;99.90;;;;;;4996763;28;20197;-80
2021/12/20 09:35:46;;;;;;;9.60;3.73;;;7.00;99.90;;;;;;4996030;28;20205;-80
2021/12/20 09:38:16;;;;;;;12.27;6.73;;;7.10;99.90;;;;;;4996229;28;20263;-80
2021/12/20 09:41:01;;;;;;;8.73;4.40;;;7.20;99.90;;;;;;4995969;28;20471;-80
2021/12/20 09:43:28;;;;;;;8.47;3.70;;;7.20;99.90;;;;;;4957426;28;20449;-83
2021/12/20 09:45:55;;;;;;;12.43;4.97;;;7.30;99.90;;;;;;4956406;29;20581;-84
2021/12/20 09:48:21;;;;;;;16.17;4.37;;;7.40;99.90;;;;;;4956010;29;20501;-84
2021/12/20 09:50:47;;;;;;;10.10;4.40;;;7.40;99.90;;;;;;4956052;29;20473;-85
2021/12/20 09:53:14;;;;;;;9.33;5.07;;;7.50;99.90;;;;;;4955978;28;20303;-85
2021/12/20 09:55:47;;;;;;;16.60;4.73;;;7.60;99.90;;;;;;4955845;29;20537;-85
2021/12/20 09:58:13;;;;;;;14.70;4.77;;;7.60;99.90;;;;;;4939955;29;20445;-85
2021/12/20 10:00:40;;;;;;;20.30;6.40;;;7.70;99.90;;;;;;4955788;29;20426;-85
2021/12/20 10:03:06;;;;;;;13.60;5.00;;;7.80;99.90;;;;;;4955937;28;20419;-85
2021/12/20 10:05:34;;;;;;;14.50;5.67;;;7.90;99.90;;;;;;4955944;29;20445;-85
2021/12/20 10:08:08;;;;;;;14.90;5.37;;;7.90;99.90;;;;;;4955741;29;20822;-85
2021/12/20 10:10:43;;;;;;;16.00;6.37;;;8.00;99.90;;;;;;4955712;29;20501;-84
2021/12/20 10:13:23;;;;;;;9.97;5.67;;;8.10;99.90;;;;;;4955739;28;20796;-85
2021/12/20 10:15:52;;;;;;;13.50;5.80;;;8.20;99.90;;;;;;4956985;29;20489;-85
2021/12/20 10:18:18;;;;;;;13.80;5.40;;;8.20;99.90;;;;;;4955691;29;20425;-85
2021/12/20 10:21:01;;;;;;;12.50;4.93;;;8.30;99.90;;;;;;4955427;28;20423;-85
2021/12/20 10:23:30;;;;;;;12.40;5.43;;;8.40;99.90;;;;;;4955570;29;20200;-85
2021/12/20 10:26:01;;;;;;;15.83;6.67;;;8.40;99.90;;;;;;4955721;29;20469;-85
2021/12/20 10:28:35;;;;;;;13.50;5.57;;;8.40;99.90;;;;;;4955468;29;20852;-84
2021/12/20 10:31:09;;;;;;;18.40;6.97;;;8.50;99.90;;;;;;4955084;29;20429;-85
2021/12/20 10:33:35;;;;;;;14.70;5.80;;;8.50;99.90;;;;;;4956747;28;20980;-85
2021/12/20 10:36:05;;;;;;;16.87;5.73;;;8.60;99.90;;;;;;4955220;29;20474;-85
2021/12/20 10:38:39;;;;;;;12.97;4.70;;;8.70;99.90;;;;;;4956236;28;20510;-85
2021/12/20 10:41:18;;;;;;;14.90;5.20;;;8.70;99.90;;;;;;4956154;29;20489;-85
2021/12/20 10:43:50;;;;;;;17.40;5.87;;;8.70;99.90;;;;;;4955176;29;20459;-85
2021/12/20 10:46:25;;;;;;;12.83;4.83;;;8.90;99.90;;;;;;4956313;29;20451;-85
2021/12/20 10:48:58;;;;;;;14.73;5.77;;;8.90;99.90;;;;;;4955089;29;20806;-85
2021/12/20 10:51:29;;;;;;;12.93;4.80;;;9.00;99.90;;;;;;4954761;28;20860;-85
2021/12/20 10:54:02;;;;;;;17.70;5.07;;;9.10;99.90;;;;;;4955076;29;20434;-85
2021/12/20 10:56:39;;;;;;;11.17;5.33;;;9.20;99.90;;;;;;4954927;29;20850;-85
2021/12/20 10:59:10;;;;;;;13.50;5.30;;;9.30;99.90;;;;;;4954783;29;20918;-85
2021/12/20 11:04:41;;;;;;;12.90;4.30;;;9.40;99.90;;;;;;4956509;28;20516;-85
2021/12/20 11:09:37;;;;;;;14.37;5.03;;;9.80;99.90;;;;;;4955911;29;20429;-85
2021/12/20 11:12:06;;;;;;;9.33;4.40;;;11.20;99.90;;;;;;4955845;29;20410;-85
2021/12/20 11:14:35;;;;;;;13.63;4.70;;;12.30;99.90;;;;;;4954477;28;20443;-85
2021/12/20 11:17:03;;;;;;;12.00;3.40;;;13.10;99.90;;;;;;4955576;29;20470;-86
2021/12/20 11:19:37;;;;;;;8.03;2.50;;;14.00;99.90;;;;;;4954449;29;20431;-86
2021/12/20 11:22:14;;;;;;;11.87;3.30;;;14.20;99.90;;;;;;4938560;29;20473;-85
2021/12/20 11:24:50;;;;;;;8.87;2.40;;;14.30;99.90;;;;;;4955695;28;20501;-85
2021/12/20 11:27:22;;;;;;;5.00;2.10;;;14.80;99.90;;;;;;4954286;29;20474;-85
2021/12/20 11:29:50;;;;;;;7.67;2.90;;;15.50;99.90;;;;;;4954064;29;20461;-85
2021/12/20 11:32:17;;;;;;;7.40;2.73;;;17.00;99.90;;;;;;4955498;29;20419;-85
2021/12/20 11:34:43;;;;;;;10.10;3.30;;;18.10;99.90;;;;;;4954299;29;20455;-86
2021/12/20 11:37:15;;;;;;;6.43;2.40;;;19.10;95.80;;;;;;4955293;29;20517;-86
2021/12/20 11:39:41;;;;;;;8.73;2.70;;;20.10;92.20;;;;;;4954230;29;20456;-86
2021/12/20 11:42:08;;;;;;;6.97;3.50;;;20.70;88.30;;;;;;4953982;29;20419;-86
2021/12/20 11:44:35;;;;;;;9.87;2.53;;;21.50;80.80;;;;;;4953952;29;20828;-86
2021/12/20 11:47:31;;;;;;;7.23;3.60;;;22.90;74.80;;;;;;4955118;29;20431;-85
2021/12/20 11:50:14;;;;;;;7.73;3.63;;;23.70;64.10;;;;;;4954128;28;20455;-86
2021/12/20 11:52:41;;;;;;;11.83;3.70;;;24.10;59.00;;;;;;4953786;29;20506;-86
2021/12/20 11:55:27;;;;;;;4.23;2.20;;;24.90;55.90;;;;;;4953763;29;20446;-86
2021/12/20 11:58:01;;;;;;;4.50;2.17;;;25.30;52.50;;;;;;4954965;29;20418;-86
2021/12/20 12:00:31;;;;;;;8.90;2.40;;;25.30;50.70;;;;;;4953425;29;20969;-86
2021/12/20 12:03:07;;;;;;;5.13;2.53;;;24.90;47.60;;;;;;4953486;28;20481;-85
2021/12/20 12:05:48;;;;;;;8.00;2.77;;;23.90;47.90;;;;;;4953741;29;20458;-86
2021/12/20 12:08:28;;;;;;;7.10;2.60;;;23.50;49.60;;;;;;4954874;29;20918;-86
2021/12/20 12:11:09;;;;;;;5.53;2.53;;;23.30;50.40;;;;;;4953227;28;20432;-85
2021/12/20 12:13:48;;;;;;;4.80;2.37;;;22.60;48.60;;;;;;4953338;28;20446;-86
2021/12/20 12:16:27;;;;;;;5.87;1.93;;;22.80;48.00;;;;;;4953369;29;20498;-85
2021/12/20 12:18:53;;;;;;;4.23;1.50;;;23.10;46.00;;;;;;4954535;29;20423;-85
2021/12/20 12:21:36;;;;;;;3.53;1.57;;;23.30;44.80;;;;;;4937126;29;20419;-86
2021/12/20 12:24:46;;;;;;;4.73;2.20;;;23.40;44.40;;;;;;4954552;28;20435;-85
2021/12/20 12:27:32;;;;;;;3.90;1.60;;;23.60;43.70;;;;;;4941858;29;20429;-85
2021/12/20 12:30:16;;;;;;;5.83;2.10;;;23.70;43.80;;;;;;4952927;29;20854;-85
2021/12/20 12:32:48;;;;;;;5.40;2.00;;;23.70;44.20;;;;;;4953088;29;20449;-86
2021/12/20 12:35:51;;;;;;;5.23;1.80;;;24.00;42.90;;;;;;4952988;28;20973;-86
2021/12/20 12:38:21;;;;;;;4.80;1.73;;;24.30;41.60;;;;;;4953132;29;20444;-86
2021/12/20 12:41:04;;;;;;;4.40;1.70;;;23.10;40.50;;;;;;4952927;28;20482;-85
2021/12/20 12:43:52;;;;;;;5.07;2.50;;;21.40;42.30;;;;;;4952847;28;20470;-85
2021/12/20 12:46:50;;;;;;;5.13;2.13;;;19.60;44.30;;;;;;4952789;28;20472;-85
2021/12/20 12:49:21;;;;;;;7.13;1.70;;;18.30;46.00;;;;;;4945288;29;20435;-85
2021/12/20 12:52:05;;;;;;;4.03;1.70;;;18.30;47.30;;;;;;4952775;29;20427;-85
2021/12/20 12:54:33;;;;;;;2.93;1.50;;;19.50;47.30;;;;;;4952845;29;20446;-85
2021/12/20 12:57:11;;;;;;;3.67;1.63;;;20.70;44.40;;;;;;4952561;28;20479;-85
2021/12/20 12:59:40;;;;;;;3.40;1.70;;;21.20;42.70;;;;;;4952498;29;20434;-85
2021/12/20 13:02:23;;;;;;;2.80;1.43;;;21.40;41.60;;;;;;4952482;28;20434;-85
2021/12/20 13:05:07;;;;;;;3.30;1.30;;;20.90;41.00;;;;;;4952759;29;20451;-86
2021/12/20 13:07:39;;;;;;;4.50;1.37;;;20.20;40.10;;;;;;4953901;29;20771;-86
2021/12/20 13:10:31;;;;;;;3.10;1.40;;;19.50;40.40;;;;;;4953827;29;20427;-85
2021/12/20 13:13:03;;;;;;;3.00;1.47;;;19.70;39.70;;;;;;4952420;28;20439;-85
2021/12/20 13:15:51;;;;;;;3.63;2.13;;;19.70;40.40;;;;;;4953763;29;20506;-86
2021/12/20 13:18:26;;;;;;;3.20;1.30;;;19.00;40.30;;;;;;4953679;29;20426;-86